sensor_id;sensor_type;location;lat;lon;timestamp;P1;durP1;ratioP1;P2;durP2;ratioP2
27985;SDS011;15453;53.692;10.168;2023-05-02T00:02:23;26.67;;;16.55;;
27985;SDS011;15453;53.692;10.168;2023-05-02T00:04:49;26.77;;;17.70;;
27985;SDS011;15453;53.692;10.168;2023-05-02T00:07:15;23.27;;;17.08;;
27985;SDS011;15453;53.692;10.168;2023-05-02T00:09:40;25.85;;;18.27;;
27985;SDS011;15453;53.692;10.168;2023-05-02T00:12:05;27.25;;;17.77;;
27985;SDS011;15453;53.692;10.168;2023-05-02T00:14:30;26.60;;;17.20;;
27985;SDS011;15453;53.692;10.168;2023-05-02T00:16:56;25.98;;;17.45;;
27985;SDS011;15453;53.692;10.168;2023-05-02T00:19:21;26.58;;;17.92;;
27985;SDS011;15453;53.692;10.168;2023-05-02T00:21:46;23.58;;;17.00;;
27985;SDS011;15453;53.692;10.168;2023-05-02T00:24:13;26.02;;;18.45;;
27985;SDS011;15453;53.692;10.168;2023-05-02T00:26:38;25.33;;;17.10;;
27985;SDS011;15453;53.692;10.168;2023-05-02T00:29:03;26.20;;;18.40;;
27985;SDS011;15453;53.692;10.168;2023-05-02T00:31:29;26.48;;;19.00;;
27985;SDS011;15453;53.692;10.168;2023-05-02T00:33:54;23.17;;;17.08;;
27985;SDS011;15453;53.692;10.168;2023-05-02T00:36:20;26.23;;;18.17;;
27985;SDS011;15453;53.692;10.168;2023-05-02T00:38:45;28.33;;;19.30;;
27985;SDS011;15453;53.692;10.168;2023-05-02T00:41:10;28.83;;;18.98;;
27985;SDS011;15453;53.692;10.168;2023-05-02T00:43:36;29.00;;;19.00;;
27985;SDS011;15453;53.692;10.168;2023-05-02T00:46:03;31.50;;;20.35;;
27985;SDS011;15453;53.692;10.168;2023-05-02T00:48:29;29.60;;;20.10;;
27985;SDS011;15453;53.692;10.168;2023-05-02T00:50:54;27.45;;;20.08;;
27985;SDS011;15453;53.692;10.168;2023-05-02T00:53:20;27.50;;;20.80;;
27985;SDS011;15453;53.692;10.168;2023-05-02T00:55:45;28.63;;;20.10;;
27985;SDS011;15453;53.692;10.168;2023-05-02T00:58:11;26.35;;;18.33;;
27985;SDS011;15453;53.692;10.168;2023-05-02T01:00:41;22.67;;;16.98;;
27985;SDS011;15453;53.692;10.168;2023-05-02T01:03:35;26.67;;;17.80;;
27985;SDS011;15453;53.692;10.168;2023-05-02T01:06:16;27.85;;;19.40;;
27985;SDS011;15453;53.692;10.168;2023-05-02T01:12:00;30.23;;;20.75;;
27985;SDS011;15453;53.692;10.168;2023-05-02T01:14:33;29.10;;;20.92;;
27985;SDS011;15453;53.692;10.168;2023-05-02T01:17:02;27.35;;;20.60;;
27985;SDS011;15453;53.692;10.168;2023-05-02T01:21:57;26.75;;;18.30;;
27985;SDS011;15453;53.692;10.168;2023-05-02T01:24:27;28.08;;;18.75;;
27985;SDS011;15453;53.692;10.168;2023-05-02T01:27:06;25.90;;;17.40;;
27985;SDS011;15453;53.692;10.168;2023-05-02T01:29:49;26.77;;;17.75;;
27985;SDS011;15453;53.692;10.168;2023-05-02T01:32:15;26.08;;;17.48;;
27985;SDS011;15453;53.692;10.168;2023-05-02T01:34:43;22.85;;;14.65;;
27985;SDS011;15453;53.692;10.168;2023-05-02T01:37:11;25.60;;;15.88;;
27985;SDS011;15453;53.692;10.168;2023-05-02T01:39:38;20.95;;;13.95;;
27985;SDS011;15453;53.692;10.168;2023-05-02T01:42:04;20.23;;;13.75;;
27985;SDS011;15453;53.692;10.168;2023-05-02T01:44:30;22.42;;;14.00;;
27985;SDS011;15453;53.692;10.168;2023-05-02T01:46:58;20.90;;;13.80;;
27985;SDS011;15453;53.692;10.168;2023-05-02T01:49:25;23.80;;;14.85;;
27985;SDS011;15453;53.692;10.168;2023-05-02T01:51:51;18.70;;;12.75;;
27985;SDS011;15453;53.692;10.168;2023-05-02T01:54:17;22.77;;;14.80;;
27985;SDS011;15453;53.692;10.168;2023-05-02T01:56:45;22.85;;;15.10;;
27985;SDS011;15453;53.692;10.168;2023-05-02T01:59:11;24.40;;;15.35;;
27985;SDS011;15453;53.692;10.168;2023-05-02T02:01:40;25.80;;;15.93;;
27985;SDS011;15453;53.692;10.168;2023-05-02T02:04:08;25.52;;;15.25;;
27985;SDS011;15453;53.692;10.168;2023-05-02T02:06:36;25.98;;;15.27;;
27985;SDS011;15453;53.692;10.168;2023-05-02T02:09:01;24.45;;;15.27;;
27985;SDS011;15453;53.692;10.168;2023-05-02T02:11:35;21.67;;;14.13;;
27985;SDS011;15453;53.692;10.168;2023-05-02T02:14:08;22.27;;;13.45;;
27985;SDS011;15453;53.692;10.168;2023-05-02T02:16:41;14.70;;;9.65;;
27985;SDS011;15453;53.692;10.168;2023-05-02T02:19:07;16.05;;;9.70;;
27985;SDS011;15453;53.692;10.168;2023-05-02T02:21:35;13.88;;;8.90;;
27985;SDS011;15453;53.692;10.168;2023-05-02T02:24:02;11.85;;;7.95;;
27985;SDS011;15453;53.692;10.168;2023-05-02T02:26:30;9.95;;;6.95;;
27985;SDS011;15453;53.692;10.168;2023-05-02T02:28:55;7.60;;;6.10;;
27985;SDS011;15453;53.692;10.168;2023-05-02T02:31:21;8.07;;;5.55;;
27985;SDS011;15453;53.692;10.168;2023-05-02T02:33:46;6.57;;;4.15;;
27985;SDS011;15453;53.692;10.168;2023-05-02T02:36:20;4.22;;;3.10;;
27985;SDS011;15453;53.692;10.168;2023-05-02T02:39:00;3.67;;;2.08;;
27985;SDS011;15453;53.692;10.168;2023-05-02T02:42:04;8.55;;;1.92;;
27985;SDS011;15453;53.692;10.168;2023-05-02T02:44:46;4.38;;;1.60;;
27985;SDS011;15453;53.692;10.168;2023-05-02T02:47:26;2.92;;;1.60;;
27985;SDS011;15453;53.692;10.168;2023-05-02T02:50:08;6.30;;;2.00;;
27985;SDS011;15453;53.692;10.168;2023-05-02T02:52:46;5.90;;;2.58;;
27985;SDS011;15453;53.692;10.168;2023-05-02T02:55:19;8.50;;;3.10;;
27985;SDS011;15453;53.692;10.168;2023-05-02T02:57:58;11.52;;;3.13;;
27985;SDS011;15453;53.692;10.168;2023-05-02T03:00:28;8.63;;;3.33;;
27985;SDS011;15453;53.692;10.168;2023-05-02T03:02:54;12.88;;;3.97;;
27985;SDS011;15453;53.692;10.168;2023-05-02T03:05:21;12.77;;;4.03;;
27985;SDS011;15453;53.692;10.168;2023-05-02T03:07:46;19.08;;;4.82;;
27985;SDS011;15453;53.692;10.168;2023-05-02T03:10:12;17.40;;;3.97;;
27985;SDS011;15453;53.692;10.168;2023-05-02T03:12:37;21.67;;;4.28;;
27985;SDS011;15453;53.692;10.168;2023-05-02T03:18:17;13.05;;;4.03;;
27985;SDS011;15453;53.692;10.168;2023-05-02T03:20:43;21.25;;;4.20;;
27985;SDS011;15453;53.692;10.168;2023-05-02T03:23:08;13.15;;;3.40;;
27985;SDS011;15453;53.692;10.168;2023-05-02T03:25:33;14.05;;;3.65;;
27985;SDS011;15453;53.692;10.168;2023-05-02T03:27:58;16.33;;;3.75;;
27985;SDS011;15453;53.692;10.168;2023-05-02T03:30:24;20.45;;;3.97;;
27985;SDS011;15453;53.692;10.168;2023-05-02T03:32:49;16.20;;;3.67;;
27985;SDS011;15453;53.692;10.168;2023-05-02T03:35:15;15.95;;;3.70;;
27985;SDS011;15453;53.692;10.168;2023-05-02T03:37:40;18.70;;;4.38;;
27985;SDS011;15453;53.692;10.168;2023-05-02T03:40:06;17.15;;;4.53;;
27985;SDS011;15453;53.692;10.168;2023-05-02T03:42:33;19.15;;;4.75;;
27985;SDS011;15453;53.692;10.168;2023-05-02T03:45:04;16.25;;;4.25;;
27985;SDS011;15453;53.692;10.168;2023-05-02T03:47:32;24.08;;;5.22;;
27985;SDS011;15453;53.692;10.168;2023-05-02T03:49:58;19.70;;;3.92;;
27985;SDS011;15453;53.692;10.168;2023-05-02T03:52:24;17.65;;;4.05;;
27985;SDS011;15453;53.692;10.168;2023-05-02T03:54:49;15.93;;;4.25;;
27985;SDS011;15453;53.692;10.168;2023-05-02T03:57:15;24.63;;;4.65;;
27985;SDS011;15453;53.692;10.168;2023-05-02T03:59:41;22.25;;;4.90;;
27985;SDS011;15453;53.692;10.168;2023-05-02T04:02:09;20.65;;;4.28;;
27985;SDS011;15453;53.692;10.168;2023-05-02T04:04:35;19.20;;;4.32;;
27985;SDS011;15453;53.692;10.168;2023-05-02T04:07:00;18.58;;;4.40;;
27985;SDS011;15453;53.692;10.168;2023-05-02T04:09:26;18.27;;;4.35;;
27985;SDS011;15453;53.692;10.168;2023-05-02T04:11:51;19.50;;;4.68;;
27985;SDS011;15453;53.692;10.168;2023-05-02T04:14:16;18.10;;;3.85;;
27985;SDS011;15453;53.692;10.168;2023-05-02T04:16:46;20.17;;;3.75;;
27985;SDS011;15453;53.692;10.168;2023-05-02T04:19:15;17.73;;;4.22;;
27985;SDS011;15453;53.692;10.168;2023-05-02T04:21:42;19.67;;;4.05;;
27985;SDS011;15453;53.692;10.168;2023-05-02T04:24:07;16.48;;;4.55;;
27985;SDS011;15453;53.692;10.168;2023-05-02T04:26:33;15.32;;;4.43;;
27985;SDS011;15453;53.692;10.168;2023-05-02T04:28:58;15.35;;;3.67;;
27985;SDS011;15453;53.692;10.168;2023-05-02T04:31:23;20.25;;;3.47;;
27985;SDS011;15453;53.692;10.168;2023-05-02T04:33:49;12.48;;;3.38;;
27985;SDS011;15453;53.692;10.168;2023-05-02T04:36:14;17.40;;;3.70;;
27985;SDS011;15453;53.692;10.168;2023-05-02T04:38:40;17.75;;;3.80;;
27985;SDS011;15453;53.692;10.168;2023-05-02T04:41:05;15.77;;;3.97;;
27985;SDS011;15453;53.692;10.168;2023-05-02T04:43:31;12.25;;;3.17;;
27985;SDS011;15453;53.692;10.168;2023-05-02T04:45:56;11.93;;;3.00;;
27985;SDS011;15453;53.692;10.168;2023-05-02T04:48:22;15.07;;;3.50;;
27985;SDS011;15453;53.692;10.168;2023-05-02T04:50:48;17.17;;;3.47;;
27985;SDS011;15453;53.692;10.168;2023-05-02T04:53:13;12.20;;;3.00;;
27985;SDS011;15453;53.692;10.168;2023-05-02T04:55:38;14.25;;;4.00;;
27985;SDS011;15453;53.692;10.168;2023-05-02T04:58:04;14.55;;;4.03;;
27985;SDS011;15453;53.692;10.168;2023-05-02T05:00:29;22.40;;;4.60;;
27985;SDS011;15453;53.692;10.168;2023-05-02T05:02:54;18.25;;;4.13;;
27985;SDS011;15453;53.692;10.168;2023-05-02T05:05:20;15.98;;;3.53;;
27985;SDS011;15453;53.692;10.168;2023-05-02T05:07:45;19.52;;;3.63;;
27985;SDS011;15453;53.692;10.168;2023-05-02T05:10:10;14.38;;;3.40;;
27985;SDS011;15453;53.692;10.168;2023-05-02T05:12:36;17.15;;;3.50;;
27985;SDS011;15453;53.692;10.168;2023-05-02T05:15:01;15.45;;;3.55;;
27985;SDS011;15453;53.692;10.168;2023-05-02T05:17:26;18.17;;;3.50;;
27985;SDS011;15453;53.692;10.168;2023-05-02T05:19:51;11.32;;;3.08;;
27985;SDS011;15453;53.692;10.168;2023-05-02T05:22:17;13.95;;;3.10;;
27985;SDS011;15453;53.692;10.168;2023-05-02T05:24:49;15.88;;;3.40;;
27985;SDS011;15453;53.692;10.168;2023-05-02T05:27:15;10.68;;;2.90;;
27985;SDS011;15453;53.692;10.168;2023-05-02T05:29:40;12.13;;;2.75;;
27985;SDS011;15453;53.692;10.168;2023-05-02T05:32:06;12.63;;;3.10;;
27985;SDS011;15453;53.692;10.168;2023-05-02T05:34:31;9.85;;;2.38;;
27985;SDS011;15453;53.692;10.168;2023-05-02T05:36:56;13.93;;;3.75;;
27985;SDS011;15453;53.692;10.168;2023-05-02T05:39:21;11.57;;;2.65;;
27985;SDS011;15453;53.692;10.168;2023-05-02T05:41:47;13.32;;;3.35;;
27985;SDS011;15453;53.692;10.168;2023-05-02T05:44:13;14.55;;;3.40;;
27985;SDS011;15453;53.692;10.168;2023-05-02T05:46:38;14.00;;;2.70;;
27985;SDS011;15453;53.692;10.168;2023-05-02T05:49:03;11.32;;;2.65;;
27985;SDS011;15453;53.692;10.168;2023-05-02T05:51:28;14.18;;;2.97;;
27985;SDS011;15453;53.692;10.168;2023-05-02T05:53:54;14.50;;;3.45;;
27985;SDS011;15453;53.692;10.168;2023-05-02T05:56:19;16.77;;;3.38;;
27985;SDS011;15453;53.692;10.168;2023-05-02T05:58:45;18.17;;;3.38;;
27985;SDS011;15453;53.692;10.168;2023-05-02T06:01:11;14.27;;;3.22;;
27985;SDS011;15453;53.692;10.168;2023-05-02T06:03:36;14.30;;;3.28;;
27985;SDS011;15453;53.692;10.168;2023-05-02T06:06:02;13.25;;;3.88;;
27985;SDS011;15453;53.692;10.168;2023-05-02T06:08:27;8.48;;;2.47;;
27985;SDS011;15453;53.692;10.168;2023-05-02T06:10:52;13.05;;;2.90;;
27985;SDS011;15453;53.692;10.168;2023-05-02T06:13:17;19.38;;;3.33;;
27985;SDS011;15453;53.692;10.168;2023-05-02T06:15:43;15.77;;;2.90;;
27985;SDS011;15453;53.692;10.168;2023-05-02T06:18:08;10.75;;;2.92;;
27985;SDS011;15453;53.692;10.168;2023-05-02T06:20:34;9.95;;;2.85;;
27985;SDS011;15453;53.692;10.168;2023-05-02T06:23:00;8.50;;;2.80;;
27985;SDS011;15453;53.692;10.168;2023-05-02T06:25:25;10.77;;;2.58;;
27985;SDS011;15453;53.692;10.168;2023-05-02T06:27:50;15.43;;;3.35;;
27985;SDS011;15453;53.692;10.168;2023-05-02T06:30:16;11.20;;;2.97;;
27985;SDS011;15453;53.692;10.168;2023-05-02T06:32:41;9.82;;;3.30;;
27985;SDS011;15453;53.692;10.168;2023-05-02T06:35:08;14.32;;;2.92;;
27985;SDS011;15453;53.692;10.168;2023-05-02T06:37:34;9.80;;;2.88;;
27985;SDS011;15453;53.692;10.168;2023-05-02T06:39:59;10.98;;;2.80;;
27985;SDS011;15453;53.692;10.168;2023-05-02T06:42:25;8.98;;;2.55;;
27985;SDS011;15453;53.692;10.168;2023-05-02T06:44:50;9.32;;;2.40;;
27985;SDS011;15453;53.692;10.168;2023-05-02T06:47:15;11.18;;;2.65;;
27985;SDS011;15453;53.692;10.168;2023-05-02T06:49:41;8.73;;;2.55;;
27985;SDS011;15453;53.692;10.168;2023-05-02T06:52:06;7.63;;;2.60;;
27985;SDS011;15453;53.692;10.168;2023-05-02T06:54:31;8.32;;;2.63;;
27985;SDS011;15453;53.692;10.168;2023-05-02T06:56:56;12.30;;;2.28;;
27985;SDS011;15453;53.692;10.168;2023-05-02T06:59:22;11.30;;;1.85;;
27985;SDS011;15453;53.692;10.168;2023-05-02T07:01:47;9.40;;;2.28;;
27985;SDS011;15453;53.692;10.168;2023-05-02T07:04:12;9.00;;;1.80;;
27985;SDS011;15453;53.692;10.168;2023-05-02T07:06:37;6.47;;;1.85;;
27985;SDS011;15453;53.692;10.168;2023-05-02T07:09:04;9.48;;;1.92;;
27985;SDS011;15453;53.692;10.168;2023-05-02T07:11:29;13.98;;;2.38;;
27985;SDS011;15453;53.692;10.168;2023-05-02T07:13:54;8.75;;;2.58;;
27985;SDS011;15453;53.692;10.168;2023-05-02T07:16:20;7.65;;;2.08;;
27985;SDS011;15453;53.692;10.168;2023-05-02T07:18:45;8.73;;;1.88;;
27985;SDS011;15453;53.692;10.168;2023-05-02T07:21:10;10.82;;;2.20;;
27985;SDS011;15453;53.692;10.168;2023-05-02T07:23:36;7.68;;;1.83;;
27985;SDS011;15453;53.692;10.168;2023-05-02T07:26:02;9.60;;;1.77;;
27985;SDS011;15453;53.692;10.168;2023-05-02T07:28:27;6.60;;;2.00;;
27985;SDS011;15453;53.692;10.168;2023-05-02T07:30:53;9.27;;;1.80;;
27985;SDS011;15453;53.692;10.168;2023-05-02T07:33:18;5.90;;;1.80;;
27985;SDS011;15453;53.692;10.168;2023-05-02T07:35:43;5.95;;;1.65;;
27985;SDS011;15453;53.692;10.168;2023-05-02T07:38:09;5.38;;;1.58;;
27985;SDS011;15453;53.692;10.168;2023-05-02T07:40:34;4.63;;;1.50;;
27985;SDS011;15453;53.692;10.168;2023-05-02T07:42:59;8.13;;;2.10;;
27985;SDS011;15453;53.692;10.168;2023-05-02T07:45:25;8.02;;;1.70;;
27985;SDS011;15453;53.692;10.168;2023-05-02T07:47:50;8.10;;;2.55;;
27985;SDS011;15453;53.692;10.168;2023-05-02T07:50:16;8.35;;;2.17;;
27985;SDS011;15453;53.692;10.168;2023-05-02T07:52:41;8.70;;;1.80;;
27985;SDS011;15453;53.692;10.168;2023-05-02T07:55:06;9.07;;;2.25;;
27985;SDS011;15453;53.692;10.168;2023-05-02T07:57:32;10.32;;;1.90;;
27985;SDS011;15453;53.692;10.168;2023-05-02T07:59:57;7.72;;;2.17;;
27985;SDS011;15453;53.692;10.168;2023-05-02T08:02:23;6.25;;;1.63;;
27985;SDS011;15453;53.692;10.168;2023-05-02T08:04:50;8.32;;;1.90;;
27985;SDS011;15453;53.692;10.168;2023-05-02T08:07:15;7.65;;;1.90;;
27985;SDS011;15453;53.692;10.168;2023-05-02T08:09:41;8.90;;;2.33;;
27985;SDS011;15453;53.692;10.168;2023-05-02T08:12:06;6.57;;;1.85;;
27985;SDS011;15453;53.692;10.168;2023-05-02T08:14:31;6.53;;;2.25;;
27985;SDS011;15453;53.692;10.168;2023-05-02T08:16:57;8.18;;;1.85;;
27985;SDS011;15453;53.692;10.168;2023-05-02T08:19:23;6.55;;;2.05;;
27985;SDS011;15453;53.692;10.168;2023-05-02T08:21:49;11.05;;;2.05;;
27985;SDS011;15453;53.692;10.168;2023-05-02T08:24:14;6.15;;;2.00;;
27985;SDS011;15453;53.692;10.168;2023-05-02T08:26:39;11.65;;;2.03;;
27985;SDS011;15453;53.692;10.168;2023-05-02T08:29:05;8.00;;;1.60;;
27985;SDS011;15453;53.692;10.168;2023-05-02T08:31:30;8.65;;;1.75;;
27985;SDS011;15453;53.692;10.168;2023-05-02T08:33:55;5.95;;;2.03;;
27985;SDS011;15453;53.692;10.168;2023-05-02T08:36:21;9.73;;;2.13;;
27985;SDS011;15453;53.692;10.168;2023-05-02T08:38:46;7.65;;;1.80;;
27985;SDS011;15453;53.692;10.168;2023-05-02T08:41:15;9.02;;;2.15;;
27985;SDS011;15453;53.692;10.168;2023-05-02T08:46:10;8.73;;;1.90;;
27985;SDS011;15453;53.692;10.168;2023-05-02T08:48:37;8.93;;;2.20;;
27985;SDS011;15453;53.692;10.168;2023-05-02T08:51:07;14.38;;;2.25;;
27985;SDS011;15453;53.692;10.168;2023-05-02T08:53:34;10.35;;;1.88;;
27985;SDS011;15453;53.692;10.168;2023-05-02T08:56:00;4.93;;;1.42;;
27985;SDS011;15453;53.692;10.168;2023-05-02T08:58:25;10.15;;;2.05;;
27985;SDS011;15453;53.692;10.168;2023-05-02T09:00:51;14.70;;;2.20;;
27985;SDS011;15453;53.692;10.168;2023-05-02T09:06:17;7.05;;;1.85;;
27985;SDS011;15453;53.692;10.168;2023-05-02T09:08:43;10.43;;;1.75;;
27985;SDS011;15453;53.692;10.168;2023-05-02T09:11:10;7.97;;;1.60;;
27985;SDS011;15453;53.692;10.168;2023-05-02T09:13:40;3.75;;;1.40;;
27985;SDS011;15453;53.692;10.168;2023-05-02T09:16:14;9.35;;;1.98;;
27985;SDS011;15453;53.692;10.168;2023-05-02T09:18:44;6.90;;;1.88;;
27985;SDS011;15453;53.692;10.168;2023-05-02T09:23:44;7.85;;;1.58;;
27985;SDS011;15453;53.692;10.168;2023-05-02T09:26:21;6.13;;;1.77;;
27985;SDS011;15453;53.692;10.168;2023-05-02T09:28:50;4.18;;;1.73;;
27985;SDS011;15453;53.692;10.168;2023-05-02T09:31:20;6.13;;;1.67;;
27985;SDS011;15453;53.692;10.168;2023-05-02T09:33:47;7.03;;;1.60;;
27985;SDS011;15453;53.692;10.168;2023-05-02T09:36:13;6.63;;;1.63;;
27985;SDS011;15453;53.692;10.168;2023-05-02T09:38:44;8.15;;;1.80;;
27985;SDS011;15453;53.692;10.168;2023-05-02T09:41:10;4.43;;;1.30;;
27985;SDS011;15453;53.692;10.168;2023-05-02T09:43:36;7.38;;;2.15;;
27985;SDS011;15453;53.692;10.168;2023-05-02T09:46:03;7.55;;;1.77;;
27985;SDS011;15453;53.692;10.168;2023-05-02T09:48:30;6.68;;;1.67;;
27985;SDS011;15453;53.692;10.168;2023-05-02T09:50:57;3.40;;;1.50;;
27985;SDS011;15453;53.692;10.168;2023-05-02T09:53:25;10.50;;;1.65;;
27985;SDS011;15453;53.692;10.168;2023-05-02T09:56:03;9.98;;;1.55;;
27985;SDS011;15453;53.692;10.168;2023-05-02T09:58:29;3.88;;;1.50;;
27985;SDS011;15453;53.692;10.168;2023-05-02T10:00:55;7.18;;;1.95;;
27985;SDS011;15453;53.692;10.168;2023-05-02T10:03:21;5.45;;;1.75;;
27985;SDS011;15453;53.692;10.168;2023-05-02T10:05:48;11.07;;;1.83;;
27985;SDS011;15453;53.692;10.168;2023-05-02T10:08:13;5.78;;;1.80;;
27985;SDS011;15453;53.692;10.168;2023-05-02T10:10:45;6.93;;;1.90;;
27985;SDS011;15453;53.692;10.168;2023-05-02T10:13:14;6.93;;;1.70;;
27985;SDS011;15453;53.692;10.168;2023-05-02T10:15:43;3.47;;;1.40;;
27985;SDS011;15453;53.692;10.168;2023-05-02T10:18:12;6.65;;;1.90;;
27985;SDS011;15453;53.692;10.168;2023-05-02T10:20:43;5.32;;;1.50;;
27985;SDS011;15453;53.692;10.168;2023-05-02T10:23:15;3.03;;;1.30;;
27985;SDS011;15453;53.692;10.168;2023-05-02T10:25:41;8.00;;;1.38;;
27985;SDS011;15453;53.692;10.168;2023-05-02T10:28:07;3.88;;;1.10;;
27985;SDS011;15453;53.692;10.168;2023-05-02T10:30:34;3.20;;;1.40;;
27985;SDS011;15453;53.692;10.168;2023-05-02T10:33:00;5.85;;;1.75;;
27985;SDS011;15453;53.692;10.168;2023-05-02T10:35:27;3.83;;;1.40;;
27985;SDS011;15453;53.692;10.168;2023-05-02T10:37:53;3.50;;;1.40;;
27985;SDS011;15453;53.692;10.168;2023-05-02T10:40:19;5.35;;;1.20;;
27985;SDS011;15453;53.692;10.168;2023-05-02T10:42:45;4.65;;;1.55;;
27985;SDS011;15453;53.692;10.168;2023-05-02T10:45:12;3.67;;;1.27;;
27985;SDS011;15453;53.692;10.168;2023-05-02T10:48:15;5.03;;;1.60;;
27985;SDS011;15453;53.692;10.168;2023-05-02T10:50:49;4.47;;;1.63;;
27985;SDS011;15453;53.692;10.168;2023-05-02T10:53:26;5.57;;;1.35;;
27985;SDS011;15453;53.692;10.168;2023-05-02T10:56:10;10.43;;;1.83;;
27985;SDS011;15453;53.692;10.168;2023-05-02T10:58:36;6.13;;;1.40;;
27985;SDS011;15453;53.692;10.168;2023-05-02T11:04:07;6.07;;;1.55;;
27985;SDS011;15453;53.692;10.168;2023-05-02T11:06:34;6.63;;;1.63;;
27985;SDS011;15453;53.692;10.168;2023-05-02T11:11:46;8.23;;;1.37;;
27985;SDS011;15453;53.692;10.168;2023-05-02T11:24:43;4.30;;;1.45;;
27985;SDS011;15453;53.692;10.168;2023-05-02T11:32:24;4.53;;;1.45;;
27985;SDS011;15453;53.692;10.168;2023-05-02T11:35:23;3.30;;;1.20;;
27985;SDS011;15453;53.692;10.168;2023-05-02T11:37:55;5.72;;;1.38;;
27985;SDS011;15453;53.692;10.168;2023-05-02T11:40:24;4.18;;;1.10;;
27985;SDS011;15453;53.692;10.168;2023-05-02T11:42:51;6.57;;;1.40;;
27985;SDS011;15453;53.692;10.168;2023-05-02T11:45:17;7.10;;;1.77;;
27985;SDS011;15453;53.692;10.168;2023-05-02T11:47:43;6.00;;;1.50;;
27985;SDS011;15453;53.692;10.168;2023-05-02T11:50:10;8.30;;;1.92;;
27985;SDS011;15453;53.692;10.168;2023-05-02T11:52:39;8.13;;;1.90;;
27985;SDS011;15453;53.692;10.168;2023-05-02T11:55:07;8.43;;;2.00;;
27985;SDS011;15453;53.692;10.168;2023-05-02T11:57:36;5.60;;;2.00;;
27985;SDS011;15453;53.692;10.168;2023-05-02T12:00:02;7.15;;;2.33;;
27985;SDS011;15453;53.692;10.168;2023-05-02T12:02:35;6.80;;;1.67;;
27985;SDS011;15453;53.692;10.168;2023-05-02T12:05:08;6.97;;;1.63;;
27985;SDS011;15453;53.692;10.168;2023-05-02T12:10:04;5.45;;;1.40;;
27985;SDS011;15453;53.692;10.168;2023-05-02T12:12:31;8.10;;;1.88;;
27985;SDS011;15453;53.692;10.168;2023-05-02T12:14:56;4.13;;;1.58;;
27985;SDS011;15453;53.692;10.168;2023-05-02T12:17:21;4.78;;;1.30;;
27985;SDS011;15453;53.692;10.168;2023-05-02T12:19:47;6.20;;;1.48;;
27985;SDS011;15453;53.692;10.168;2023-05-02T12:22:14;5.72;;;1.83;;
27985;SDS011;15453;53.692;10.168;2023-05-02T12:24:39;4.65;;;1.50;;
27985;SDS011;15453;53.692;10.168;2023-05-02T12:27:09;5.22;;;1.30;;
27985;SDS011;15453;53.692;10.168;2023-05-02T12:29:42;5.53;;;1.45;;
27985;SDS011;15453;53.692;10.168;2023-05-02T12:32:10;6.03;;;1.17;;
27985;SDS011;15453;53.692;10.168;2023-05-02T12:34:36;8.35;;;1.60;;
27985;SDS011;15453;53.692;10.168;2023-05-02T12:37:02;9.13;;;1.52;;
27985;SDS011;15453;53.692;10.168;2023-05-02T12:42:13;6.30;;;1.50;;
27985;SDS011;15453;53.692;10.168;2023-05-02T12:44:41;3.75;;;1.50;;
27985;SDS011;15453;53.692;10.168;2023-05-02T12:47:09;6.50;;;1.80;;
27985;SDS011;15453;53.692;10.168;2023-05-02T12:52:14;4.17;;;1.43;;
27985;SDS011;15453;53.692;10.168;2023-05-02T12:54:39;5.60;;;1.90;;
27985;SDS011;15453;53.692;10.168;2023-05-02T12:57:05;5.90;;;1.67;;
27985;SDS011;15453;53.692;10.168;2023-05-02T12:59:31;5.53;;;1.90;;
27985;SDS011;15453;53.692;10.168;2023-05-02T13:01:57;6.07;;;2.33;;
27985;SDS011;15453;53.692;10.168;2023-05-02T13:04:35;4.90;;;1.52;;
27985;SDS011;15453;53.692;10.168;2023-05-02T13:07:01;6.78;;;1.88;;
27985;SDS011;15453;53.692;10.168;2023-05-02T13:09:26;7.75;;;2.05;;
27985;SDS011;15453;53.692;10.168;2023-05-02T13:11:51;5.78;;;1.85;;
27985;SDS011;15453;53.692;10.168;2023-05-02T13:14:18;6.05;;;1.55;;
27985;SDS011;15453;53.692;10.168;2023-05-02T13:16:43;6.43;;;2.25;;
27985;SDS011;15453;53.692;10.168;2023-05-02T13:19:09;6.00;;;1.67;;
27985;SDS011;15453;53.692;10.168;2023-05-02T13:21:34;8.65;;;1.80;;
27985;SDS011;15453;53.692;10.168;2023-05-02T13:24:00;5.30;;;1.65;;
27985;SDS011;15453;53.692;10.168;2023-05-02T13:26:27;8.07;;;1.92;;
27985;SDS011;15453;53.692;10.168;2023-05-02T13:28:53;10.05;;;1.85;;
27985;SDS011;15453;53.692;10.168;2023-05-02T13:31:18;7.70;;;2.00;;
27985;SDS011;15453;53.692;10.168;2023-05-02T13:33:43;5.38;;;2.47;;
27985;SDS011;15453;53.692;10.168;2023-05-02T13:36:08;7.22;;;2.30;;
27985;SDS011;15453;53.692;10.168;2023-05-02T13:38:34;5.22;;;2.22;;
27985;SDS011;15453;53.692;10.168;2023-05-02T13:40:59;4.95;;;2.17;;
27985;SDS011;15453;53.692;10.168;2023-05-02T13:43:25;7.70;;;2.10;;
27985;SDS011;15453;53.692;10.168;2023-05-02T13:45:50;6.72;;;2.17;;
27985;SDS011;15453;53.692;10.168;2023-05-02T13:48:16;6.85;;;2.20;;
27985;SDS011;15453;53.692;10.168;2023-05-02T13:50:41;8.07;;;1.88;;
27985;SDS011;15453;53.692;10.168;2023-05-02T13:53:06;5.13;;;1.80;;
27985;SDS011;15453;53.692;10.168;2023-05-02T13:55:32;8.25;;;1.58;;
27985;SDS011;15453;53.692;10.168;2023-05-02T13:57:57;5.45;;;1.67;;
27985;SDS011;15453;53.692;10.168;2023-05-02T14:00:22;5.40;;;1.60;;
27985;SDS011;15453;53.692;10.168;2023-05-02T14:02:47;4.72;;;1.77;;
27985;SDS011;15453;53.692;10.168;2023-05-02T14:05:13;5.63;;;2.10;;
27985;SDS011;15453;53.692;10.168;2023-05-02T14:07:38;5.07;;;1.85;;
27985;SDS011;15453;53.692;10.168;2023-05-02T14:10:04;7.60;;;2.10;;
27985;SDS011;15453;53.692;10.168;2023-05-02T14:12:30;7.07;;;1.92;;
27985;SDS011;15453;53.692;10.168;2023-05-02T14:14:56;8.88;;;2.17;;
27985;SDS011;15453;53.692;10.168;2023-05-02T14:17:21;6.75;;;1.63;;
27985;SDS011;15453;53.692;10.168;2023-05-02T14:19:49;7.75;;;2.47;;
27985;SDS011;15453;53.692;10.168;2023-05-02T14:22:14;6.43;;;1.73;;
27985;SDS011;15453;53.692;10.168;2023-05-02T14:24:40;6.65;;;1.88;;
27985;SDS011;15453;53.692;10.168;2023-05-02T14:27:05;13.98;;;2.17;;
27985;SDS011;15453;53.692;10.168;2023-05-02T14:29:31;5.68;;;1.65;;
27985;SDS011;15453;53.692;10.168;2023-05-02T14:31:57;5.07;;;1.98;;
27985;SDS011;15453;53.692;10.168;2023-05-02T14:34:22;8.10;;;1.60;;
27985;SDS011;15453;53.692;10.168;2023-05-02T14:36:50;7.82;;;1.92;;
27985;SDS011;15453;53.692;10.168;2023-05-02T14:39:16;5.43;;;1.92;;
27985;SDS011;15453;53.692;10.168;2023-05-02T14:41:41;4.20;;;1.33;;
27985;SDS011;15453;53.692;10.168;2023-05-02T14:44:06;6.43;;;1.90;;
27985;SDS011;15453;53.692;10.168;2023-05-02T14:46:32;7.57;;;2.35;;
27985;SDS011;15453;53.692;10.168;2023-05-02T14:48:57;5.35;;;1.50;;
27985;SDS011;15453;53.692;10.168;2023-05-02T14:51:22;4.72;;;1.80;;
27985;SDS011;15453;53.692;10.168;2023-05-02T14:53:47;4.40;;;1.70;;
27985;SDS011;15453;53.692;10.168;2023-05-02T14:56:13;4.20;;;1.50;;
27985;SDS011;15453;53.692;10.168;2023-05-02T14:58:41;3.63;;;1.58;;
27985;SDS011;15453;53.692;10.168;2023-05-02T15:01:06;5.93;;;1.70;;
27985;SDS011;15453;53.692;10.168;2023-05-02T15:03:39;3.25;;;1.45;;
27985;SDS011;15453;53.692;10.168;2023-05-02T15:06:04;3.58;;;1.55;;
27985;SDS011;15453;53.692;10.168;2023-05-02T15:08:29;6.15;;;2.13;;
27985;SDS011;15453;53.692;10.168;2023-05-02T15:10:55;3.63;;;1.58;;
27985;SDS011;15453;53.692;10.168;2023-05-02T15:13:20;4.13;;;1.13;;